Time;durP1;ratioP1;P1;durP2;ratioP2;P2;SDS_P1;SDS_P2;PMS_P1;PMS_P2;Temp;Humidity;BMP_temperature;BMP_pressure;BME280_temperature;BME280_humidity;BME280_pressure;Samples;Min_cycle;Max_cycle;Signal;HPM_P1;HPM_P2
2021/12/20 00:01:57;;;;;;;25.20;9.50;;;7.90;99.90;;;;;;5073077;28;20062;-81
2021/12/20 00:04:23;;;;;;;20.75;8.57;;;8.10;99.90;;;;;;5073658;28;20037;-82
2021/12/20 00:06:48;;;;;;;30.02;9.80;;;8.10;99.90;;;;;;5073182;28;20127;-82
2021/12/20 00:09:15;;;;;;;21.15;9.57;;;8.10;99.90;;;;;;5072046;28;20506;-82
2021/12/20 00:11:40;;;;;;;30.27;10.15;;;8.10;99.90;;;;;;5073123;28;20030;-78
2021/12/20 00:14:06;;;;;;;30.27;11.57;;;8.20;99.90;;;;;;5072023;28;20366;-82
2021/12/20 00:16:33;;;;;;;33.70;12.45;;;8.30;99.90;;;;;;5073312;28;20031;-82
2021/12/20 00:18:58;;;;;;;32.28;13.32;;;8.40;99.90;;;;;;5073139;28;20025;-82
2021/12/20 00:21:24;;;;;;;31.38;13.95;;;8.40;99.90;;;;;;5072873;28;20151;-81
2021/12/20 00:23:50;;;;;;;32.53;13.93;;;8.20;99.90;;;;;;5073122;28;20469;-82
2021/12/20 00:26:15;;;;;;;27.83;13.00;;;8.20;99.90;;;;;;5072876;28;20025;-81
2021/12/20 00:28:42;;;;;;;29.15;13.60;;;8.40;99.90;;;;;;5073188;28;20488;-81
2021/12/20 00:31:08;;;;;;;32.53;11.45;;;8.40;99.90;;;;;;5073071;28;20021;-82
2021/12/20 00:33:34;;;;;;;22.52;10.45;;;8.40;99.90;;;;;;5073205;28;20112;-82
2021/12/20 00:36:06;;;;;;;31.67;11.55;;;8.40;99.90;;;;;;5072787;28;20024;-82
2021/12/20 00:41:17;;;;;;;28.58;9.63;;;8.20;99.90;;;;;;5072857;28;20464;-82
2021/12/20 00:43:43;;;;;;;31.95;10.98;;;8.30;99.90;;;;;;5073068;28;20063;-81
2021/12/20 00:46:09;;;;;;;28.63;10.55;;;8.50;99.90;;;;;;5072754;28;20048;-81
2021/12/20 00:48:35;;;;;;;26.85;10.38;;;8.50;99.90;;;;;;5071769;28;20072;-83
2021/12/20 00:51:00;;;;;;;27.38;9.65;;;8.60;99.90;;;;;;5071400;28;20157;-81
2021/12/20 00:53:26;;;;;;;23.35;9.27;;;8.60;99.90;;;;;;5072896;28;20071;-82
2021/12/20 00:55:52;;;;;;;21.23;9.20;;;8.60;99.90;;;;;;5072839;28;20040;-81
2021/12/20 00:58:18;;;;;;;23.38;8.57;;;8.60;99.90;;;;;;5072779;28;20074;-83
2021/12/20 01:00:54;;;;;;;20.77;7.70;;;8.70;99.90;;;;;;5072803;28;20095;-82
2021/12/20 01:03:21;;;;;;;24.27;8.05;;;8.80;99.90;;;;;;5071696;28;20192;-82
2021/12/20 01:05:48;;;;;;;25.85;7.82;;;8.70;99.90;;;;;;5072501;28;20461;-81
2021/12/20 01:08:14;;;;;;;17.02;7.82;;;8.70;99.90;;;;;;5072511;28;20435;-82
2021/12/20 01:10:45;;;;;;;20.90;7.90;;;8.70;99.90;;;;;;5072856;28;20433;-81
2021/12/20 01:13:13;;;;;;;18.08;7.07;;;8.50;99.90;;;;;;5071222;28;20032;-82
2021/12/20 01:15:46;;;;;;;19.25;7.03;;;8.60;99.90;;;;;;5076903;28;20473;-82
2021/12/20 01:18:13;;;;;;;21.65;7.07;;;8.60;99.90;;;;;;5076634;28;20024;-81
2021/12/20 01:20:38;;;;;;;15.80;7.45;;;8.60;99.90;;;;;;5076369;28;20063;-81
2021/12/20 01:23:05;;;;;;;19.02;8.30;;;8.50;99.90;;;;;;5075132;28;20071;-82
2021/12/20 01:25:31;;;;;;;15.73;7.85;;;8.50;99.90;;;;;;5076421;28;20043;-80
2021/12/20 01:27:57;;;;;;;22.15;9.20;;;8.50;99.90;;;;;;5076441;28;20469;-82
2021/12/20 01:30:25;;;;;;;14.63;8.60;;;8.50;99.90;;;;;;5075190;28;20045;-82
2021/12/20 01:32:51;;;;;;;20.92;8.82;;;8.50;99.90;;;;;;5076303;28;20087;-81
2021/12/20 01:35:19;;;;;;;19.75;8.05;;;8.50;99.90;;;;;;5074957;28;20469;-82
2021/12/20 01:37:45;;;;;;;16.40;7.50;;;8.60;99.90;;;;;;5076195;28;20465;-82
2021/12/20 01:40:13;;;;;;;15.70;7.30;;;8.50;99.90;;;;;;5076310;28;20032;-80
2021/12/20 01:42:40;;;;;;;15.20;6.80;;;8.60;99.90;;;;;;5076535;28;20380;-82
2021/12/20 01:45:13;;;;;;;18.58;6.88;;;8.40;99.90;;;;;;5076120;28;20039;-81
2021/12/20 01:47:43;;;;;;;12.73;6.70;;;8.30;99.90;;;;;;5075720;28;20052;-81
2021/12/20 01:52:58;;;;;;;18.38;7.97;;;8.40;99.90;;;;;;5063917;28;20064;-81
2021/12/20 01:55:24;;;;;;;17.67;5.65;;;8.30;99.90;;;;;;5075959;28;20063;-82
2021/12/20 01:57:50;;;;;;;13.30;5.05;;;8.30;99.90;;;;;;5075820;28;20172;-81
2021/12/20 02:00:21;;;;;;;14.70;3.83;;;8.40;99.90;;;;;;5075866;28;20377;-82
2021/12/20 02:02:58;;;;;;;9.18;3.50;;;8.40;99.90;;;;;;5075516;28;20090;-81
2021/12/20 02:05:46;;;;;;;8.10;2.90;;;8.30;99.90;;;;;;5074580;28;20017;-81
2021/12/20 02:10:49;;;;;;;8.00;3.72;;;8.20;99.90;;;;;;5075863;28;20048;-81
2021/12/20 02:13:16;;;;;;;7.57;3.90;;;8.30;99.90;;;;;;5075435;28;20030;-82
2021/12/20 02:15:43;;;;;;;13.55;4.18;;;8.30;99.90;;;;;;5075627;28;20452;-82
2021/12/20 02:18:09;;;;;;;14.57;5.05;;;8.30;99.90;;;;;;5075229;28;20062;-81
2021/12/20 02:20:36;;;;;;;12.13;4.32;;;8.30;99.90;;;;;;5074285;28;20465;-82
2021/12/20 02:23:03;;;;;;;10.73;3.95;;;8.40;99.90;;;;;;5075446;28;20048;-82
2021/12/20 02:25:30;;;;;;;12.75;3.80;;;8.40;99.90;;;;;;5075369;28;20021;-82
2021/12/20 02:28:05;;;;;;;11.45;3.72;;;8.30;99.90;;;;;;5074204;28;20028;-81
2021/12/20 02:38:33;;;;;;;4.00;1.85;;;8.30;99.90;;;;;;5075354;28;20500;-82
2021/12/20 02:41:11;;;;;;;9.38;2.88;;;8.20;99.90;;;;;;5075395;28;20120;-82
2021/12/20 02:43:40;;;;;;;7.07;3.35;;;8.30;99.90;;;;;;5075042;28;20111;-82
2021/12/20 02:48:56;;;;;;;7.50;3.78;;;8.40;99.90;;;;;;5074758;28;20517;-82
2021/12/20 02:51:26;;;;;;;13.20;3.78;;;8.30;99.90;;;;;;5073990;28;20025;-81
2021/12/20 02:53:56;;;;;;;9.48;3.25;;;8.20;99.90;;;;;;5074832;28;20043;-82
2021/12/20 02:56:22;;;;;;;8.77;2.80;;;8.20;99.90;;;;;;5074826;28;20491;-82
2021/12/20 02:58:48;;;;;;;8.95;4.18;;;8.30;99.90;;;;;;5074941;28;20031;-82
2021/12/20 03:01:15;;;;;;;7.57;3.55;;;8.40;99.90;;;;;;5074520;28;20035;-81
2021/12/20 03:03:41;;;;;;;9.10;3.55;;;8.40;99.90;;;;;;5074662;28;20504;-81
2021/12/20 03:06:20;;;;;;;9.00;4.72;;;8.50;99.90;;;;;;5074684;28;20107;-76
2021/12/20 03:08:49;;;;;;;11.90;3.78;;;8.50;99.90;;;;;;5074411;28;20041;-82
2021/12/20 03:11:16;;;;;;;10.50;3.28;;;8.50;99.90;;;;;;5074528;28;20033;-82
2021/12/20 03:13:45;;;;;;;15.63;3.58;;;8.60;99.90;;;;;;5074427;28;20029;-82
2021/12/20 03:16:11;;;;;;;10.68;3.13;;;8.40;99.90;;;;;;5072936;28;20021;-82
2021/12/20 03:18:36;;;;;;;9.68;2.92;;;8.40;99.90;;;;;;5074333;28;20495;-82
2021/12/20 03:21:02;;;;;;;9.80;2.90;;;8.30;99.90;;;;;;5073054;28;20134;-81
2021/12/20 03:23:28;;;;;;;10.27;2.92;;;8.30;99.90;;;;;;5073149;28;20044;-82
2021/12/20 03:25:54;;;;;;;10.02;3.83;;;8.40;99.90;;;;;;5074003;28;20021;-82
2021/12/20 03:28:20;;;;;;;9.55;3.80;;;8.40;99.90;;;;;;5074273;28;20495;-82
2021/12/20 03:30:46;;;;;;;11.85;3.75;;;8.50;99.90;;;;;;5074129;28;20021;-82
2021/12/20 03:33:12;;;;;;;14.75;3.08;;;8.40;99.90;;;;;;5074249;28;20032;-82
2021/12/20 03:35:37;;;;;;;12.15;2.92;;;8.30;99.90;;;;;;5073029;28;20115;-82
2021/12/20 03:38:04;;;;;;;12.88;3.67;;;8.30;99.90;;;;;;5073778;28;20025;-80
2021/12/20 03:40:29;;;;;;;11.05;3.47;;;8.50;99.90;;;;;;5073879;28;20040;-81
2021/12/20 03:42:55;;;;;;;8.13;3.03;;;8.50;99.90;;;;;;5073928;28;20161;-81
2021/12/20 03:45:21;;;;;;;19.15;3.40;;;8.40;99.90;;;;;;5073570;28;20051;-82
2021/12/20 03:47:47;;;;;;;10.88;3.08;;;8.30;99.90;;;;;;5073926;28;20036;-82
2021/12/20 03:50:14;;;;;;;15.18;2.97;;;8.40;99.90;;;;;;5074015;28;20029;-82
2021/12/20 03:52:40;;;;;;;15.10;2.92;;;8.40;99.90;;;;;;5073732;28;20032;-82
2021/12/20 03:55:11;;;;;;;15.20;4.20;;;8.30;99.90;;;;;;5073714;28;20435;-82
2021/12/20 03:57:37;;;;;;;14.75;2.60;;;8.30;99.90;;;;;;5065064;28;20079;-82
2021/12/20 04:00:09;;;;;;;17.20;3.60;;;8.30;99.90;;;;;;5053364;28;20020;-80
2021/12/20 04:02:42;;;;;;;20.98;4.47;;;8.30;99.90;;;;;;5053474;28;20036;-80
2021/12/20 04:05:09;;;;;;;19.77;4.60;;;8.40;99.90;;;;;;5053484;28;20044;-80
2021/12/20 04:07:35;;;;;;;13.07;3.30;;;8.40;99.90;;;;;;5052316;28;20021;-81
2021/12/20 04:10:01;;;;;;;11.88;2.92;;;8.30;99.90;;;;;;5070441;28;20047;-81
2021/12/20 04:12:26;;;;;;;18.10;3.30;;;8.30;99.90;;;;;;5073190;28;20016;-80
2021/12/20 04:14:52;;;;;;;15.90;3.67;;;8.30;99.90;;;;;;5073130;28;20021;-80
2021/12/20 04:17:18;;;;;;;15.73;2.92;;;8.20;99.90;;;;;;5073279;28;20017;-80
2021/12/20 04:19:44;;;;;;;15.60;3.20;;;8.30;99.90;;;;;;5073394;28;20036;-81
2021/12/20 04:22:09;;;;;;;25.10;3.72;;;8.20;99.90;;;;;;5073231;28;20020;-80
2021/12/20 04:24:35;;;;;;;21.38;3.30;;;8.00;99.90;;;;;;5073239;28;20480;-81
2021/12/20 04:27:01;;;;;;;22.88;4.25;;;7.90;99.90;;;;;;5073029;28;20048;-81
2021/12/20 04:29:28;;;;;;;18.58;3.60;;;7.90;99.90;;;;;;5071777;28;20086;-81
2021/12/20 04:31:54;;;;;;;16.08;3.75;;;8.00;99.90;;;;;;5071562;28;20051;-81
2021/12/20 04:34:20;;;;;;;23.20;4.22;;;8.10;99.90;;;;;;5072980;28;20527;-81
2021/12/20 04:36:46;;;;;;;21.42;3.63;;;8.00;99.90;;;;;;5073024;28;20032;-81
2021/12/20 04:39:16;;;;;;;20.60;4.03;;;8.10;99.90;;;;;;5072908;28;20036;-81
2021/12/20 04:41:42;;;;;;;19.73;3.58;;;8.20;99.90;;;;;;5072650;28;20112;-77
2021/12/20 04:44:08;;;;;;;17.75;3.35;;;8.20;99.90;;;;;;5071718;28;20128;-81
2021/12/20 04:46:34;;;;;;;23.13;3.88;;;8.20;99.90;;;;;;5072849;28;20388;-81
2021/12/20 04:49:00;;;;;;;22.77;3.92;;;8.20;99.90;;;;;;5072169;28;20032;-80
2021/12/20 04:51:25;;;;;;;21.00;3.70;;;8.20;99.90;;;;;;5072669;28;20127;-81
2021/12/20 04:53:51;;;;;;;23.40;3.88;;;8.00;99.90;;;;;;5072817;28;20020;-81
2021/12/20 04:56:17;;;;;;;15.55;4.18;;;8.00;99.90;;;;;;5072611;28;20491;-80
2021/12/20 04:58:42;;;;;;;32.53;4.18;;;8.10;99.90;;;;;;5072709;28;20029;-82
2021/12/20 05:01:08;;;;;;;26.02;4.65;;;8.20;99.90;;;;;;5071701;28;20028;-80
2021/12/20 05:03:34;;;;;;;23.58;3.97;;;8.10;99.90;;;;;;5072536;28;20029;-81
2021/12/20 05:05:59;;;;;;;24.33;3.67;;;8.00;99.90;;;;;;5072629;28;20094;-82
2021/12/20 05:08:33;;;;;;;22.48;3.33;;;8.00;99.90;;;;;;5072144;28;20129;-81
2021/12/20 05:11:00;;;;;;;34.70;3.75;;;7.90;99.90;;;;;;5072391;28;20033;-79
2021/12/20 05:13:25;;;;;;;24.35;3.53;;;8.00;99.90;;;;;;5054538;28;20154;-80
2021/12/20 05:15:51;;;;;;;17.08;3.63;;;7.90;99.90;;;;;;5071352;28;20052;-80
2021/12/20 05:18:17;;;;;;;31.45;4.70;;;8.00;99.90;;;;;;5072519;28;20380;-79
2021/12/20 05:20:43;;;;;;;28.73;4.78;;;8.10;99.90;;;;;;5072637;28;20037;-80
2021/12/20 05:23:09;;;;;;;21.77;4.13;;;8.20;99.90;;;;;;5072473;28;20028;-81
2021/12/20 05:25:36;;;;;;;28.80;3.85;;;8.10;99.90;;;;;;5070899;28;20029;-80
2021/12/20 05:28:02;;;;;;;24.27;3.88;;;8.20;99.90;;;;;;5072555;28;20086;-81
2021/12/20 05:30:27;;;;;;;31.58;4.82;;;8.20;99.90;;;;;;5072374;28;20050;-81
2021/12/20 05:32:53;;;;;;;29.92;5.55;;;8.30;99.90;;;;;;5072505;28;20431;-81
2021/12/20 05:35:21;;;;;;;29.33;3.65;;;8.30;99.90;;;;;;5072451;28;20021;-80
2021/12/20 05:37:48;;;;;;;30.27;4.03;;;8.40;99.90;;;;;;5072207;28;20056;-81
2021/12/20 05:40:15;;;;;;;23.50;4.22;;;8.40;99.90;;;;;;5072303;28;20485;-81
2021/12/20 05:42:41;;;;;;;20.23;3.88;;;8.20;99.90;;;;;;5072044;28;20021;-81
2021/12/20 05:45:08;;;;;;;20.23;4.00;;;8.00;99.90;;;;;;5072487;28;20473;-80
2021/12/20 05:47:34;;;;;;;21.58;3.20;;;8.00;99.90;;;;;;5072306;28;20032;-80
2021/12/20 05:50:00;;;;;;;16.98;3.60;;;8.10;99.90;;;;;;5072233;28;20024;-82
2021/12/20 05:52:26;;;;;;;25.67;4.22;;;8.20;99.90;;;;;;5072245;28;20040;-80
2021/12/20 05:54:52;;;;;;;23.50;3.78;;;8.00;99.90;;;;;;5071868;28;20028;-79
2021/12/20 05:57:17;;;;;;;22.45;3.55;;;8.00;99.90;;;;;;5072227;28;20024;-83
2021/12/20 05:59:43;;;;;;;24.33;5.22;;;7.90;99.90;;;;;;5072906;28;20029;-82
2021/12/20 06:02:09;;;;;;;25.95;4.38;;;7.80;99.90;;;;;;5075944;28;20482;-81
2021/12/20 06:04:34;;;;;;;21.58;4.13;;;8.00;99.90;;;;;;5075603;28;20361;-81
2021/12/20 06:07:00;;;;;;;28.95;3.60;;;7.90;99.90;;;;;;5076009;28;20025;-81
2021/12/20 06:09:27;;;;;;;28.73;4.22;;;8.20;99.90;;;;;;5075119;28;20064;-80
2021/12/20 06:11:54;;;;;;;27.58;5.35;;;8.10;99.90;;;;;;5075860;28;20032;-80
2021/12/20 06:14:20;;;;;;;25.27;4.00;;;8.10;99.90;;;;;;5074305;28;20032;-80
2021/12/20 06:16:46;;;;;;;25.67;3.80;;;8.20;99.90;;;;;;5075638;28;20020;-80
2021/12/20 06:19:11;;;;;;;27.77;4.45;;;7.90;99.90;;;;;;5075327;28;20078;-81
2021/12/20 06:21:37;;;;;;;29.13;5.30;;;7.90;99.90;;;;;;5057512;28;20081;-80
2021/12/20 06:24:03;;;;;;;22.25;3.45;;;8.20;99.90;;;;;;5074016;28;20025;-79
2021/12/20 06:26:29;;;;;;;26.27;4.05;;;8.00;99.90;;;;;;5075164;28;20037;-79
2021/12/20 06:28:55;;;;;;;20.98;3.40;;;8.20;99.90;;;;;;5075216;28;20084;-81
2021/12/20 06:31:20;;;;;;;29.85;3.88;;;8.20;99.90;;;;;;5075405;28;20020;-80
2021/12/20 06:33:46;;;;;;;21.55;3.80;;;8.20;99.90;;;;;;5074961;28;20420;-82
2021/12/20 06:36:12;;;;;;;35.50;4.72;;;8.10;99.90;;;;;;5074431;28;20023;-82
2021/12/20 06:38:44;;;;;;;24.50;3.88;;;8.20;99.90;;;;;;5074920;28;20039;-80
2021/12/20 06:41:10;;;;;;;20.80;3.92;;;8.20;99.90;;;;;;5057302;28;20388;-80
2021/12/20 06:43:36;;;;;;;23.95;3.75;;;8.00;99.90;;;;;;5075020;28;20406;-80
2021/12/20 06:46:02;;;;;;;31.60;4.32;;;8.00;99.90;;;;;;5073780;28;20086;-79
2021/12/20 06:48:28;;;;;;;23.58;4.30;;;8.10;99.90;;;;;;5074998;28;20032;-83
2021/12/20 06:50:54;;;;;;;30.58;4.95;;;8.10;99.90;;;;;;5074789;28;20029;-82
2021/12/20 06:53:20;;;;;;;32.53;4.18;;;8.10;99.90;;;;;;5073377;28;20024;-81
2021/12/20 06:55:45;;;;;;;31.25;5.40;;;8.10;99.90;;;;;;5075203;28;20041;-80
2021/12/20 06:58:12;;;;;;;31.95;4.57;;;8.20;99.90;;;;;;5073777;28;20052;-80
2021/12/20 07:00:37;;;;;;;42.60;6.13;;;8.10;99.90;;;;;;5074616;28;20407;-80
2021/12/20 07:03:03;;;;;;;33.30;4.55;;;8.10;99.90;;;;;;5073514;28;20116;-80
2021/12/20 07:05:30;;;;;;;34.65;4.32;;;8.10;99.90;;;;;;5074538;28;20055;-80
2021/12/20 07:07:55;;;;;;;43.88;5.28;;;8.10;99.90;;;;;;5074350;28;20043;-81
2021/12/20 07:10:21;;;;;;;37.50;4.55;;;8.10;99.90;;;;;;5074408;28;20475;-80
2021/12/20 07:12:47;;;;;;;26.23;4.60;;;8.20;99.90;;;;;;5073589;28;20138;-81
2021/12/20 07:15:14;;;;;;;26.23;4.63;;;8.40;99.90;;;;;;5074356;28;20028;-80
2021/12/20 07:17:41;;;;;;;30.95;4.90;;;8.20;99.90;;;;;;5074539;28;20039;-80
2021/12/20 07:20:08;;;;;;;27.55;5.22;;;8.10;99.90;;;;;;5074348;28;20029;-82
2021/12/20 07:22:34;;;;;;;23.80;4.07;;;8.00;99.90;;;;;;5074023;28;20068;-82
2021/12/20 07:25:00;;;;;;;25.95;4.63;;;7.80;99.90;;;;;;5072986;28;20492;-82
2021/12/20 07:27:26;;;;;;;28.27;5.05;;;7.80;99.90;;;;;;5074120;28;20146;-80
2021/12/20 07:29:52;;;;;;;31.05;6.28;;;7.90;99.90;;;;;;5073915;28;20131;-80
2021/12/20 07:32:18;;;;;;;31.80;6.10;;;7.90;99.90;;;;;;5074370;28;20067;-80
2021/12/20 07:34:43;;;;;;;27.98;4.93;;;8.00;99.90;;;;;;5074048;28;20481;-80
2021/12/20 07:37:09;;;;;;;39.22;4.97;;;7.90;99.90;;;;;;5073817;28;20384;-81
2021/12/20 07:39:35;;;;;;;30.77;5.50;;;8.00;99.90;;;;;;5074039;28;20137;-83
2021/12/20 07:42:02;;;;;;;21.05;3.95;;;7.90;99.90;;;;;;5073908;28;20033;-81
2021/12/20 07:44:29;;;;;;;22.73;3.80;;;8.00;99.90;;;;;;5072395;28;20028;-78
2021/12/20 07:46:55;;;;;;;31.75;4.22;;;8.00;99.90;;;;;;5073809;28;20031;-82
2021/12/20 07:49:21;;;;;;;31.10;4.90;;;8.00;99.90;;;;;;5073895;28;20539;-81
2021/12/20 07:51:47;;;;;;;27.45;4.38;;;8.10;99.90;;;;;;5072017;28;20523;-81
2021/12/20 07:54:13;;;;;;;30.83;4.60;;;8.20;99.90;;;;;;5055930;28;20029;-81
2021/12/20 07:56:39;;;;;;;38.78;4.65;;;8.30;99.90;;;;;;5073734;28;20032;-81
2021/12/20 07:59:04;;;;;;;23.13;5.15;;;8.20;99.90;;;;;;5073787;28;20059;-76
2021/12/20 08:01:33;;;;;;;33.47;4.93;;;8.20;99.90;;;;;;5073350;28;20032;-80
2021/12/20 08:03:59;;;;;;;53.17;5.25;;;8.30;99.90;;;;;;5073692;28;20027;-79
2021/12/20 08:06:25;;;;;;;31.83;5.00;;;8.30;99.90;;;;;;5072045;28;20435;-81
2021/12/20 08:08:51;;;;;;;30.65;4.90;;;8.40;99.90;;;;;;5073561;28;20040;-78
2021/12/20 08:11:16;;;;;;;29.80;5.00;;;8.50;99.90;;;;;;5072175;28;20020;-81
2021/12/20 08:13:45;;;;;;;26.48;5.00;;;8.40;99.90;;;;;;5073782;28;20069;-78
2021/12/20 08:16:14;;;;;;;23.25;3.78;;;8.30;99.90;;;;;;5073310;28;20107;-78
2021/12/20 08:18:41;;;;;;;22.80;4.38;;;8.40;99.90;;;;;;5073437;28;20103;-79
2021/12/20 08:21:07;;;;;;;22.13;3.83;;;8.30;99.90;;;;;;5071955;28;20437;-79
2021/12/20 08:23:33;;;;;;;30.30;3.97;;;8.40;99.90;;;;;;5073145;28;20040;-75
2021/12/20 08:25:59;;;;;;;30.02;4.05;;;8.20;99.90;;;;;;5071597;28;20477;-79
2021/12/20 08:28:25;;;;;;;27.65;5.82;;;8.30;99.90;;;;;;5073170;28;20029;-79
2021/12/20 08:30:50;;;;;;;29.20;5.35;;;8.20;99.90;;;;;;5073003;28;20082;-78
2021/12/20 08:33:16;;;;;;;30.42;5.43;;;8.20;99.90;;;;;;5073531;28;20040;-78
2021/12/20 08:35:42;;;;;;;30.08;5.35;;;8.20;99.90;;;;;;5073181;28;20031;-79
2021/12/20 08:38:09;;;;;;;21.92;3.90;;;8.40;99.90;;;;;;5072024;28;20028;-79
2021/12/20 08:40:34;;;;;;;38.40;5.93;;;8.60;99.90;;;;;;5073152;28;20078;-79
2021/12/20 08:43:01;;;;;;;34.63;3.83;;;8.70;99.90;;;;;;5072822;28;20052;-79
2021/12/20 08:45:27;;;;;;;29.60;4.32;;;8.80;99.90;;;;;;5072910;28;20070;-79
2021/12/20 08:47:53;;;;;;;32.95;4.57;;;8.60;99.90;;;;;;5071565;28;20051;-79
2021/12/20 08:50:21;;;;;;;25.45;4.28;;;8.60;99.90;;;;;;5071713;28;20027;-79
2021/12/20 08:52:47;;;;;;;39.00;4.35;;;8.40;99.90;;;;;;5072845;28;20040;-80
2021/12/20 08:55:14;;;;;;;23.88;4.50;;;8.20;99.90;;;;;;5072042;28;20038;-80
2021/12/20 08:57:40;;;;;;;29.10;5.07;;;8.30;99.90;;;;;;5055137;28;20059;-80
2021/12/20 09:00:09;;;;;;;22.77;3.72;;;8.20;99.90;;;;;;5072247;28;20437;-80
2021/12/20 09:02:36;;;;;;;32.95;4.95;;;8.10;99.90;;;;;;5074094;28;20020;-79
2021/12/20 09:05:02;;;;;;;22.90;3.58;;;8.20;99.90;;;;;;5082399;28;20059;-76
2021/12/20 09:07:27;;;;;;;34.50;4.30;;;8.10;99.90;;;;;;5078412;28;20032;-80
2021/12/20 09:09:53;;;;;;;28.45;4.45;;;8.40;99.90;;;;;;5073708;28;20028;-79
2021/12/20 09:12:20;;;;;;;23.85;4.13;;;8.70;99.90;;;;;;5073868;28;20108;-78
2021/12/20 09:14:47;;;;;;;25.25;4.30;;;8.50;99.90;;;;;;5073998;28;20025;-79
2021/12/20 09:17:12;;;;;;;32.03;4.40;;;8.60;99.90;;;;;;5075297;28;20024;-79
2021/12/20 09:19:38;;;;;;;28.77;4.78;;;8.70;99.90;;;;;;5074580;28;20025;-79
2021/12/20 09:22:06;;;;;;;28.05;4.18;;;8.70;99.90;;;;;;5073386;28;20564;-79
2021/12/20 09:24:33;;;;;;;30.73;4.35;;;8.70;99.90;;;;;;5072496;28;20366;-79
2021/12/20 09:27:00;;;;;;;34.25;4.20;;;8.70;99.90;;;;;;5072779;28;20040;-79
2021/12/20 09:29:25;;;;;;;36.20;4.82;;;8.50;99.90;;;;;;5073048;28;20097;-79
2021/12/20 09:31:51;;;;;;;31.55;4.88;;;8.60;99.90;;;;;;5072608;28;20407;-79
2021/12/20 09:34:17;;;;;;;28.33;4.78;;;8.60;99.90;;;;;;5073457;28;20119;-79
2021/12/20 09:36:43;;;;;;;30.75;4.85;;;8.80;99.90;;;;;;5078640;28;20031;-79
2021/12/20 09:39:11;;;;;;;16.17;4.43;;;8.80;99.90;;;;;;5083242;28;20013;-79
2021/12/20 09:44:09;;;;;;;23.75;4.05;;;8.90;99.90;;;;;;5076311;28;20393;-79
2021/12/20 09:46:36;;;;;;;32.28;3.95;;;8.80;99.90;;;;;;5076067;28;20033;-78
2021/12/20 09:49:02;;;;;;;24.52;3.60;;;8.90;99.90;;;;;;5076141;28;20032;-77
2021/12/20 09:51:28;;;;;;;30.10;4.65;;;8.90;99.90;;;;;;5074612;28;20032;-79
2021/12/20 09:53:57;;;;;;;23.95;4.03;;;8.90;99.90;;;;;;5075965;28;20366;-78
2021/12/20 09:56:25;;;;;;;42.63;5.60;;;8.90;99.90;;;;;;5076191;28;20063;-79
2021/12/20 09:58:57;;;;;;;23.80;3.80;;;8.90;99.90;;;;;;5076243;28;20048;-78
2021/12/20 10:01:25;;;;;;;26.02;4.15;;;8.70;99.90;;;;;;5076292;28;20473;-80
2021/12/20 10:03:52;;;;;;;19.50;2.65;;;8.80;99.90;;;;;;5075671;28;20036;-79
2021/12/20 10:06:20;;;;;;;36.00;4.10;;;8.60;99.90;;;;;;5074776;28;20492;-79
2021/12/20 10:08:55;;;;;;;16.20;3.13;;;8.70;99.90;;;;;;5076521;28;20048;-78
2021/12/20 10:11:24;;;;;;;13.75;3.03;;;8.90;99.90;;;;;;5075948;28;20515;-80
2021/12/20 10:14:01;;;;;;;22.52;3.50;;;9.00;99.90;;;;;;5074557;28;20032;-78
2021/12/20 10:16:28;;;;;;;19.05;3.83;;;8.90;99.90;;;;;;5074417;28;20024;-79
2021/12/20 10:18:54;;;;;;;18.05;2.85;;;8.90;99.90;;;;;;5075427;28;20044;-80
2021/12/20 10:21:19;;;;;;;27.40;3.85;;;9.10;99.90;;;;;;5075826;28;20029;-79
2021/12/20 10:23:48;;;;;;;14.73;3.22;;;9.10;99.90;;;;;;5075460;28;20477;-79
2021/12/20 10:26:20;;;;;;;24.73;3.33;;;9.00;99.90;;;;;;5075485;28;20021;-79
2021/12/20 10:28:48;;;;;;;17.75;3.20;;;9.10;99.90;;;;;;5075246;28;20047;-79
2021/12/20 10:31:22;;;;;;;17.85;3.40;;;9.20;99.90;;;;;;5074969;28;20017;-79
2021/12/20 10:34:00;;;;;;;14.88;3.53;;;9.20;99.90;;;;;;5080581;28;20047;-79
2021/12/20 10:36:27;;;;;;;12.85;3.22;;;9.00;99.90;;;;;;5075261;28;20469;-79
2021/12/20 10:38:58;;;;;;;17.55;2.92;;;8.70;99.90;;;;;;5074125;28;20032;-81
2021/12/20 10:41:36;;;;;;;18.25;2.88;;;8.60;99.90;;;;;;5075264;28;20464;-78
2021/12/20 10:44:14;;;;;;;23.13;2.78;;;8.60;99.90;;;;;;5073689;28;20047;-72
2021/12/20 10:46:47;;;;;;;10.23;2.67;;;8.80;99.90;;;;;;5074262;28;20032;-79
2021/12/20 10:49:16;;;;;;;20.50;3.25;;;8.70;99.90;;;;;;5074630;28;20036;-79
2021/12/20 10:51:45;;;;;;;21.88;3.15;;;8.70;99.90;;;;;;5074967;28;20017;-79
2021/12/20 10:54:16;;;;;;;20.33;3.47;;;8.30;99.90;;;;;;5074793;28;20497;-79
2021/12/20 10:57:00;;;;;;;17.70;2.90;;;8.40;99.90;;;;;;5075058;28;20024;-79
2021/12/20 10:59:28;;;;;;;20.63;2.92;;;8.40;99.90;;;;;;5074492;28;20029;-78
2021/12/20 11:04:47;;;;;;;16.77;2.75;;;8.60;99.90;;;;;;5074509;28;20562;-79
2021/12/20 11:09:53;;;;;;;16.98;4.18;;;8.90;99.90;;;;;;5072801;28;20044;-76
2021/12/20 11:12:23;;;;;;;18.77;3.20;;;8.90;99.90;;;;;;5074481;28;20025;-78
2021/12/20 11:14:51;;;;;;;18.15;3.33;;;8.90;99.90;;;;;;5074252;28;20111;-78
2021/12/20 11:17:20;;;;;;;19.83;2.83;;;8.80;99.90;;;;;;5074618;28;20430;-78
2021/12/20 11:19:47;;;;;;;14.77;2.67;;;8.70;99.90;;;;;;5074115;28;20400;-78
2021/12/20 11:22:19;;;;;;;19.70;3.70;;;8.70;99.90;;;;;;5074625;28;20040;-79
2021/12/20 11:24:58;;;;;;;27.77;3.92;;;8.70;99.90;;;;;;5074313;28;20028;-79
2021/12/20 11:27:53;;;;;;;16.63;3.03;;;8.90;99.90;;;;;;5052858;28;20120;-79
2021/12/20 11:30:23;;;;;;;15.52;2.65;;;9.10;99.90;;;;;;5052248;28;20084;-79
2021/12/20 11:32:49;;;;;;;24.60;3.45;;;8.90;99.90;;;;;;5054114;28;20540;-78
2021/12/20 11:35:17;;;;;;;18.40;3.33;;;9.00;99.90;;;;;;5054090;28;20055;-79
2021/12/20 11:37:44;;;;;;;28.20;3.53;;;8.80;99.90;;;;;;5054037;28;20151;-78
2021/12/20 11:40:13;;;;;;;13.90;3.42;;;8.80;99.90;;;;;;5054229;28;20120;-79
2021/12/20 11:42:40;;;;;;;12.27;2.30;;;8.70;99.90;;;;;;5052565;28;20025;-79
2021/12/20 11:45:08;;;;;;;12.02;2.75;;;8.70;99.90;;;;;;5053640;28;20017;-79
2021/12/20 11:48:11;;;;;;;13.98;2.55;;;8.80;99.90;;;;;;5052680;28;20393;-80
2021/12/20 11:50:39;;;;;;;20.60;3.08;;;9.00;99.90;;;;;;5052089;28;20048;-81
2021/12/20 11:53:11;;;;;;;24.17;4.35;;;8.70;99.90;;;;;;5053769;28;20021;-80
2021/12/20 11:55:44;;;;;;;24.63;6.20;;;8.90;99.90;;;;;;5053886;28;20068;-80
2021/12/20 11:58:19;;;;;;;23.48;6.88;;;8.90;99.90;;;;;;5053143;28;20029;-80
2021/12/20 12:00:49;;;;;;;17.27;4.97;;;8.80;99.90;;;;;;5053470;28;20037;-79
2021/12/20 12:03:15;;;;;;;19.52;4.05;;;9.10;99.90;;;;;;5052316;28;20037;-79
2021/12/20 12:05:52;;;;;;;19.70;2.67;;;9.10;99.90;;;;;;5052327;28;20078;-78
2021/12/20 12:08:29;;;;;;;11.77;2.88;;;9.10;99.90;;;;;;5056229;28;20047;-80
2021/12/20 12:11:00;;;;;;;14.02;2.70;;;9.00;99.90;;;;;;5073260;28;20420;-79
2021/12/20 12:13:29;;;;;;;16.48;3.15;;;9.30;99.90;;;;;;5072087;28;20037;-80
2021/12/20 12:16:01;;;;;;;15.15;2.92;;;9.30;99.90;;;;;;5073306;28;20024;-79
2021/12/20 12:18:48;;;;;;;24.10;2.40;;;9.50;99.90;;;;;;5073318;28;20029;-78
2021/12/20 12:21:32;;;;;;;13.13;2.00;;;9.60;99.90;;;;;;5072182;28;20053;-80
2021/12/20 12:23:59;;;;;;;7.38;1.45;;;9.20;99.90;;;;;;5073273;28;20476;-79
2021/12/20 12:26:34;;;;;;;12.75;2.38;;;9.30;99.90;;;;;;5072700;28;20133;-80
2021/12/20 12:29:00;;;;;;;14.75;2.10;;;9.20;99.90;;;;;;5072125;28;20036;-79
2021/12/20 12:31:47;;;;;;;14.00;1.80;;;9.10;99.90;;;;;;5073057;28;20027;-79
2021/12/20 12:34:13;;;;;;;12.30;1.95;;;9.10;99.90;;;;;;5071545;28;20032;-80
2021/12/20 12:36:40;;;;;;;13.43;2.35;;;8.70;99.90;;;;;;5073148;28;20021;-80
2021/12/20 12:39:23;;;;;;;10.95;2.33;;;8.90;99.90;;;;;;5073062;28;20040;-80
2021/12/20 12:41:54;;;;;;;12.00;2.65;;;8.90;99.90;;;;;;5072383;28;20465;-80
2021/12/20 12:44:30;;;;;;;16.48;3.15;;;8.80;99.90;;;;;;5073014;28;20504;-79
2021/12/20 12:47:07;;;;;;;17.50;3.15;;;9.00;99.90;;;;;;5072892;28;20032;-80
2021/12/20 12:49:37;;;;;;;13.70;2.42;;;8.90;99.90;;;;;;5073073;28;20488;-80
2021/12/20 12:52:08;;;;;;;9.68;2.25;;;8.60;99.90;;;;;;5072723;28;20044;-79
2021/12/20 12:54:36;;;;;;;14.30;2.60;;;8.90;99.90;;;;;;5072616;28;20028;-80
2021/12/20 12:57:11;;;;;;;16.85;2.53;;;8.80;99.90;;;;;;5072565;28;20028;-78
2021/12/20 12:59:56;;;;;;;17.50;3.15;;;8.90;99.90;;;;;;5072853;28;20028;-78
2021/12/20 13:02:38;;;;;;;18.58;3.22;;;9.10;99.90;;;;;;5072575;28;20066;-79
2021/12/20 13:05:06;;;;;;;14.88;3.22;;;9.20;99.90;;;;;;5072651;28;20473;-79
2021/12/20 13:07:42;;;;;;;16.00;2.80;;;9.10;99.90;;;;;;5072623;28;20032;-79
2021/12/20 13:10:32;;;;;;;17.38;2.88;;;9.20;99.90;;;;;;5073904;28;20036;-80
2021/12/20 13:13:52;;;;;;;27.48;3.67;;;9.10;99.90;;;;;;5075299;28;20028;-79
2021/12/20 13:16:03;;;;;;;14.50;3.35;;;9.00;99.90;;;;;;5076514;28;20079;-79
2021/12/20 13:18:35;;;;;;;21.23;3.65;;;9.20;99.90;;;;;;5076656;28;20487;-79
2021/12/20 13:21:05;;;;;;;18.02;2.85;;;9.00;99.90;;;;;;5076845;28;20051;-79